Latest Coastal Weather Observations for Brisbane Airport

IDQ60701

Issued at 3:12 am EST Wednesday 18 October 2017 (issued every 10 minutes, with the page automatically refreshed every 10 minutes)

About coastal observations | Map of coastal stations | Coastal observations for QLD | Marine services | Other Formats
Station Details ID: 040842 Name: BRISBANE AERO Lat: -27.39 Lon: 153.13 Height: 4.51 m
Data from the previous 72 hours. | See also: Recent months at Brisbane Airport
Date/Time
EST
Temp
°C
Wind Pressure Rain since
9am
mm
Weather Cloud Vis
km
Sea
Height
m
Swell
Dir  Spd
kts
Gust
kts
hPa Trend Height
m
Period
s
Dir
18/03:00am 19.1 SE 9 16 1021.6 F 10.0 Rain Cloudy 7 - - - -
18/02:30am 19.1 SE 9 15 1021.6 - 9.6 Drizzle Mostly clear 10 - - - -
18/02:00am 19.1 ESE 9 15 1021.8 - 9.4 - Mostly clear 6 - - - -
18/01:30am 19.2 ESE 9 16 1022.0 - 8.6 Drizzle Mostly clear 6 - - - -
18/01:00am 19.2 ESE 10 17 1022.1 - 8.2 - Mostly clear 6 - - - -
18/12:30am 19.4 ESE 11 18 1022.5 - 8.0 Drizzle Mostly clear 6 - - - -
18/12:00am 19.3 ESE 10 16 1023.0 R 7.6 Rain Cloudy 5 - - - -
 
Date/Time
EST
Temp
°C
Wind Pressure Rain since
9am
mm
Weather Cloud Vis
km
Sea
Height
m
Swell
Dir  Spd
kts
Gust
kts
hPa Trend Height
m
Period
s
Dir
17/11:30pm 19.6 ESE 10 19 1023.0 - 7.0 Drizzle Mostly clear 10 - - - -
17/11:00pm 19.0 ESE 10 16 1023.3 - 7.0 - Mostly clear 6 - - - -
17/10:30pm 19.2 ESE 11 19 1023.6 - 5.0 Rain Mostly clear 6 - - - -
17/10:00pm 19.9 ESE 13 20 1023.4 - 4.8 - Mostly clear 10 - - - -
17/09:30pm 19.8 ESE 12 19 1023.2 - 4.8 - Mostly clear 10 - - - -
17/09:24pm 19.9 ESE 12 19 1023.1 - 4.8 - Mostly clear 10 - - - -
17/09:00pm 19.9 ESE 12 18 1023.1 F 4.8 Drizzle Cloudy 12 - - - -
17/08:30pm 19.9 ESE 12 19 1023.2 - 4.6 Rain Mostly clear 6 - - - -
17/08:00pm 19.9 ESE 12 21 1023.0 - 4.6 - Mostly clear 10 - - - -
17/07:30pm 20.8 ESE 13 22 1022.7 - 4.6 - Mostly clear 10 - - - -
17/07:00pm 20.7 ESE 13 19 1022.4 - 4.6 - Mostly clear 10 - - - -
17/06:30pm 20.7 ESE 13 23 1022.0 - 4.6 - Mostly clear 10 - - - -
17/06:00pm 20.8 ESE 13 21 1021.6 R 4.6 Fine Cloudy 15 - - - -
17/05:30pm 20.8 ESE 14 22 1021.2 - 4.6 - Mostly clear 10 - - - -
17/05:00pm 20.3 ESE 12 21 1021.0 - 4.6 - Mostly clear 10 - - - -
17/04:45pm 20.2 ESE 11 20 1020.7 - 4.4 - Partly cloudy 10 - - - -
17/04:30pm 20.2 E 10 16 1020.6 - 4.4 Showers Partly cloudy 5 - - - -
17/04:00pm 19.2 ESE 11 19 1020.8 - 4.0 - Partly cloudy 2 - - - -
17/03:48pm 19.6 ESE 11 19 1020.7 - 3.0 Showers Partly cloudy 4 - - - -
17/03:30pm 19.7 ESE 11 20 1020.2 - 2.8 Showers Partly cloudy 9 - - - -
17/03:13pm 20.2 ESE 13 21 1020.1 - 2.6 - Mostly clear 10 - - - -
17/03:00pm 20.2 SE 13 21 1020.0 R 2.6 Showers Cloudy 12 - - - -
17/02:30pm 20.5 ESE 11 20 1020.1 - 2.6 Showers Partly cloudy 10 - - - -
17/02:00pm 20.5 ESE 13 18 1020.4 - 2.6 - Partly cloudy 10 - - - -
17/01:55pm 20.5 ESE 13 21 1020.3 - 2.6 - Partly cloudy 10 - - - -
17/01:30pm 20.4 ESE 12 22 1020.3 - 2.6 - Mostly clear 10 - - - -
17/01:00pm 19.7 SE 11 18 1020.7 - 2.2 - Mostly clear 8 - - - -
17/12:49pm 19.9 SE 12 20 1020.7 - 1.8 Showers Partly cloudy 4 - - - -
17/12:30pm 19.8 ESE 11 18 1021.0 - 1.6 Showers Partly cloudy 9 - - - -
17/12:20pm 19.5 SE 11 18 1021.1 - 1.6 Showers Partly cloudy 8 - - - -
17/12:00pm 19.6 ESE 13 19 1021.2 R 1.4 Recent precip. Cloudy 8 - - - -
17/11:39am 19.7 ESE 15 22 1021.3 - 1.4 Showers Mostly clear 4 - - - -
17/11:30am 20.2 SE 12 21 1021.3 - 1.0 Showers Mostly clear 4 - - - -
17/11:18am 19.9 ESE 12 19 1021.5 - 1.0 - Partly cloudy 10 - - - -
17/11:00am 19.9 E 14 24 1021.8 - 0.8 - Mostly clear 6 - - - -
17/10:54am 21.2 ESE 13 24 1021.6 - 0.0 Showers Mostly clear 4 - - - -
17/10:30am 21.3 ESE 13 22 1021.6 - 0.0 Showers Mostly clear 10 - - - -
17/10:00am 21.3 ESE 14 22 1021.7 - 0.0 - Mostly clear 10 - - - -
17/09:30am 21.4 ESE 13 22 1021.7 - 0.0 - Partly cloudy 10 - - - -
17/09:00am 21.1 ESE 12 22 1021.6 R 6.8 Distant precip. Cloudy 15 - - - -
17/08:30am 21.0 ESE 14 22 1021.3 - 6.8 Showers Mostly clear 10 - - - -
17/08:00am 21.1 ESE 13 23 1020.9 - 6.8 - Partly cloudy 10 - - - -
17/07:30am 20.8 ESE 13 21 1020.8 - 6.8 Showers Mostly clear 10 - - - -
17/07:00am 19.4 ESE 13 19 1020.6 - 6.8 - Mostly clear 10 - - - -
17/06:52am 20.9 ESE 12 20 1020.6 - 5.4 Showers Mostly clear 4 - - - -
17/06:30am 20.9 ESE 13 21 1019.8 - 5.4 - Mostly clear 10 - - - -
17/06:00am 20.5 ESE 13 24 1019.4 F 5.4 Showers Cloudy 15 - - - -
17/05:30am 19.9 ESE 12 18 1019.3 - 5.4 Showers Mostly clear 10 - - - -
17/05:00am 19.5 ESE 13 20 1019.4 - 5.0 - Mostly clear 10 - - - -
17/04:30am 19.6 ESE 13 20 1019.3 - 4.8 Showers Mostly clear 10 - - - -
17/04:00am 20.6 ESE 12 20 1019.0 - 4.6 - Mostly clear 10 - - - -
17/03:30am 20.8 ESE 12 19 1019.1 - 4.6 - Mostly clear 10 - - - -
17/03:00am 20.9 ESE 13 22 1019.2 F 4.6 Fine Cloudy 20 - - - -
17/02:30am 20.8 ESE 11 19 1019.3 - 4.6 - Mostly clear 10 - - - -
17/02:00am 21.0 ESE 11 19 1019.6 - 4.6 - Mostly clear 10 - - - -
17/01:30am 21.1 ESE 10 18 1019.8 - 4.6 - Mostly clear 10 - - - -
17/01:00am 20.9 ESE 10 16 1020.0 - 4.6 - Mostly clear 10 - - - -
17/12:30am 20.8 ESE 11 16 1020.2 - 4.6 - Mostly clear 10 - - - -
17/12:00am 20.9 ESE 11 19 1020.4 F 4.6 Fine Cloudy 20 - - - -
 
Date/Time
EST
Temp
°C
Wind Pressure Rain since
9am
mm
Weather Cloud Vis
km
Sea
Height
m
Swell
Dir  Spd
kts
Gust
kts
hPa Trend Height
m
Period
s
Dir
16/11:30pm 20.7 ESE 11 17 1020.8 - 4.6 - Mostly clear 10 - - - -
16/11:00pm 19.8 ESE 14 25 1021.3 - 4.4 - Mostly clear 10 - - - -
16/10:30pm 21.0 ESE 11 18 1021.2 - 4.2 - Mostly clear 10 - - - -
16/10:00pm 21.2 ESE 11 19 1021.3 - 4.2 - Mostly clear 10 - - - -
16/09:30pm 20.8 ESE 11 17 1021.2 - 4.2 - Mostly clear 10 - - - -
16/09:00pm 20.6 ESE 11 19 1021.0 F 4.2 Recent precip. Mostly cloudy 20 - - - -
16/08:30pm 20.2 ESE 11 24 1020.9 - 4.2 Showers Partly cloudy 10 - - - -
16/08:00pm 20.5 ESE 11 18 1020.6 - 3.2 - Partly cloudy 10 - - - -
16/07:30pm 20.9 ESE 12 20 1020.4 - 3.2 - Mostly clear 10 - - - -
16/07:00pm 20.8 ESE 9 16 1020.1 - 3.2 - Mostly clear 10 - - - -
16/06:30pm 20.8 ESE 12 21 1019.7 - 3.0 Rain Mostly clear 10 - - - -
16/06:00pm 20.8 ESE 12 21 1019.5 R 3.0 Rain Cloudy 15 - - - -
16/05:30pm 20.9 ESE 11 21 1019.3 - 3.0 Rain Mostly clear 10 - - - -
16/05:00pm 20.8 ESE 11 17 1019.1 - 2.8 - Mostly clear 10 - - - -
16/04:30pm 20.1 ESE 13 25 1019.0 - 2.8 Rain Mostly clear 10 - - - -
16/04:00pm 20.6 ESE 12 17 1018.5 - 2.6 - Mostly clear 8 - - - -
16/03:45pm 19.9 ESE 12 19 1018.4 - 2.4 Rain Mostly clear 6 - - - -
16/03:30pm 19.9 SE 12 21 1018.4 - 2.0 Rain Mostly clear 4 - - - -
16/03:26pm 20.4 SE 12 21 1018.3 - 1.4 Rain Mostly clear 5 - - - -
16/03:00pm 20.7 ESE 11 18 1018.3 R 1.4 Rain Cloudy 11 - - - -
16/02:30pm 21.0 ESE 13 20 1018.3 - 1.0 Rain Mostly clear 10 - - - -
16/02:00pm 21.4 ESE 14 22 1018.2 - 1.0 - Mostly clear 10 - - - -
16/01:30pm 21.3 SE 14 22 1018.3 - 1.0 Rain Partly cloudy 10 - - - -
16/01:00pm 21.2 ESE 13 21 1018.6 - 1.0 - Mostly clear 10 - - - -
16/12:30pm 21.1 ESE 13 20 1019.1 - 1.0 Rain Mostly clear 10 - - - -
16/12:00pm 20.9 ESE 12 18 1019.1 R 1.0 Rain Cloudy 12 - - - -
16/11:30am 21.3 ESE 12 24 1019.5 - 0.4 Rain Mostly clear 9 - - - -
16/11:00am 21.9 ESE 12 21 1019.5 - 0.4 - Mostly clear 9 - - - -
16/10:52am 21.7 ESE 13 23 1019.6 - 0.4 Rain Mostly clear 8 - - - -
16/10:30am 20.9 ESE 11 17 1019.9 - 0.4 Rain Mostly clear 5 - - - -
16/10:25am 20.9 ESE 12 20 1020.0 - 0.2 Rain Mostly clear 6 - - - -
16/10:00am 22.0 ESE 13 20 1019.8 - 0.0 - Mostly clear 9 - - - -
16/09:30am 22.0 ESE 12 20 1019.8 - 0.0 Rain Mostly clear 10 - - - -
16/09:00am 21.8 ESE 13 20 1019.9 R 11.8 Rain Cloudy 11 - - - -
16/08:30am 20.9 ESE 12 17 1019.6 - 11.8 Rain Mostly clear 9 - - - -
16/08:00am 20.5 ESE 11 19 1019.6 - 11.6 - Mostly clear 8 - - - -
16/07:30am 20.5 E 10 19 1019.1 - 11.6 Rain Mostly clear 10 - - - -
16/07:00am 21.3 ESE 12 21 1018.8 - 11.4 - Mostly clear 10 - - - -
16/06:30am 21.2 ESE 12 20 1018.6 - 11.4 Rain Mostly clear 10 - - - -
16/06:00am 21.1 ESE 9 15 1018.4 R 11.4 Distant precip. Cloudy 15 - - - -
16/05:30am 21.0 ESE 10 16 1017.7 - 11.4 - Mostly clear 10 - - - -
16/05:00am 21.0 ESE 9 15 1017.5 - 11.4 - Partly cloudy 10 - - - -
16/04:30am 21.0 E 11 17 1017.4 - 11.4 Rain Partly cloudy 10 - - - -
16/04:00am 20.8 ESE 9 14 1017.1 - 11.4 - Mostly clear 10 - - - -
16/03:30am 20.7 E 11 19 1016.8 - 11.4 - Mostly clear 10 - - - -
16/03:00am 20.1 ESE 9 16 1016.9 F 11.4 Showers Mostly cloudy 30 - - - -
16/02:30am 19.1 ESE 12 22 1017.2 - 11.2 Showers Mostly clear 8 - - - -
16/02:26am 19.2 ESE 13 23 1017.3 - 10.8 Showers Mostly clear 6 - - - -
16/02:12am 20.6 ESE 11 19 1017.2 - 10.6 Showers Partly cloudy 4 - - - -
16/02:00am 20.0 SE 11 18 1017.3 - 10.6 - Partly cloudy 10 - - - -
16/01:30am 20.8 ESE 13 22 1017.5 - 10.6 - Partly cloudy 10 - - - -
16/01:00am 20.4 SE 8 15 1017.5 - 10.6 - Partly cloudy 10 - - - -
16/12:30am 20.1 SE 11 17 1017.6 - 10.6 - Mostly clear 10 - - - -
16/12:00am 20.2 SE 10 19 1018.1 F 10.6 Distant precip. Mostly cloudy 30 - - - -
 
Date/Time
EST
Temp
°C
Wind Pressure Rain since
9am
mm
Weather Cloud Vis
km
Sea
Height
m
Swell
Dir  Spd
kts
Gust
kts
hPa Trend Height
m
Period
s
Dir
15/11:34pm 20.2 SE 11 20 1018.4 - 10.6 - Mostly clear 10 - - - -
15/11:30pm 20.2 SE 12 20 1018.4 - 10.6 - Mostly clear 10 - - - -
15/11:00pm 20.4 SE 11 20 1018.8 - 10.6 - Mostly clear 10 - - - -
15/10:30pm 20.4 ESE 13 23 1018.9 - 10.6 - Mostly clear 10 - - - -
15/10:00pm 20.6 ESE 12 22 1018.8 - 10.6 - Mostly clear 10 - - - -
15/09:30pm 20.6 ESE 10 18 1018.7 - 10.6 - Mostly clear 10 - - - -
15/09:00pm 20.3 ESE 10 17 1018.7 F 10.6 Recent precip. Mostly cloudy 20 - - - -
15/08:30pm 20.2 ESE 11 19 1018.8 - 10.6 Rain Mostly clear 10 - - - -
15/08:00pm 19.9 ESE 10 16 1018.7 - 10.4 - Mostly clear 10 - - - -
15/07:30pm 19.9 ESE 13 19 1018.4 - 10.4 Rain Mostly clear 10 - - - -
15/07:00pm 19.8 ESE 13 25 1018.0 - 10.4 - Mostly clear 10 - - - -
15/06:30pm 18.7 ESE 14 23 1017.7 - 9.8 Showers Mostly clear 8 - - - -
15/06:16pm 18.9 ESE 11 18 1017.4 - 9.4 Showers Mostly clear 8 - - - -
15/06:05pm 18.4 E 15 26 1017.5 - 8.6 Showers Mostly clear 4 - - - -
15/06:00pm 20.3 ESE 12 20 1017.2 R 7.4 Showers Cloudy 5 - - - -
15/05:30pm 20.1 ESE 12 20 1017.1 - 7.2 Rain Mostly clear 10 - - - -
15/05:00pm 20.0 ESE 10 15 1016.6 - 7.2 - Mostly clear 10 - - - -
15/04:45pm 19.5 ESE 11 18 1016.7 - 7.0 Rain Mostly clear 8 - - - -
15/04:30pm 19.4 ESE 13 23 1016.5 - 6.4 Rain Mostly clear 6 - - - -
15/04:01pm 18.5 SE 12 25 1016.6 - 4.4 Rain Mostly clear 4 - - - -
15/04:00pm 18.5 SE 11 21 1016.6 - 4.4 - Mostly clear 4 - - - -
15/03:55pm 18.8 SSE 9 16 1016.3 - 3.4 Rain Mostly clear 3 - - - -
15/03:30pm 18.9 ESE 9 18 1016.2 - 2.6 Rain Mostly clear 5 - - - -
15/03:06pm 18.7 SSE 10 17 1016.1 - 1.2 Showers Partly cloudy 4 - - - -
15/03:00pm 19.3 SSE 10 16 1016.1 R 0.4 Showers Cloudy 6 - - - -
15/02:30pm 18.8 SE 11 17 1016.2 - 0.4 Showers Mostly clear 8 - - - -
15/02:11pm 19.2 SE 13 20 1016.2 - 0.4 Showers Mostly clear 5 - - - -
15/02:00pm 20.1 SE 13 21 1016.2 - 0.2 - Mostly clear 10 - - - -
15/01:32pm 20.0 ESE 15 25 1016.3 - 0.2 Showers Mostly clear 10 - - - -
15/01:30pm 19.9 ESE 14 25 1016.3 - 0.2 Showers Mostly clear 10 - - - -
15/01:15pm 20.6 ESE 15 26 1016.2 - 0.2 Showers Mostly clear 10 - - - -
15/01:00pm 21.2 ESE 12 19 1016.2 - 0.2 - Mostly clear 10 - - - -
15/12:30pm 20.9 E 12 20 1016.5 - 0.2 Showers Mostly clear 10 - - - -
15/12:00pm 21.7 ESE 12 20 1016.6 R 0.2 Distant precip. Cloudy 17 - - - -
15/11:30am 22.2 ESE 15 24 1016.8 - 0.2 - Mostly clear 10 - - - -
15/11:00am 21.9 E 12 20 1017.1 - 0.2 - Mostly clear 10 - - - -
15/10:30am 22.5 ESE 13 22 1017.3 - 0.2 Showers Mostly clear 10 - - - -
15/10:00am 22.1 ESE 15 22 1017.3 - 0.2 - Mostly clear 10 - - - -
15/09:30am 21.2 ESE 9 18 1017.3 - 0.2 Showers Mostly clear 10 - - - -
15/09:00am 18.9 S 3 7 1017.5 R 34.8 Showers Cloudy 9 - - - -
15/08:53am 18.1 CALM 0 0 1017.4 - 34.6 Showers Mostly clear 8 - - - -
15/08:43am 17.5 ESE 3 7 1017.5 - 34.6 Showers Mostly clear 6 - - - -
15/08:39am 17.4 E 6 12 1017.5 - 34.6 Showers Mostly clear 4 - - - -
15/08:30am 18.3 ESE 11 17 1017.6 - 32.0 Showers Mostly clear 2 - - - -
15/08:24am 18.6 SE 11 18 1017.7 - 31.2 Showers Mostly clear 6 - - - -
15/08:00am 19.7 SE 10 16 1017.2 - 31.0 - Mostly clear 10 - - - -
15/07:30am 20.0 SE 10 15 1016.8 - 31.0 - Mostly clear 10 - - - -
15/07:08am 19.3 ESE 8 15 1016.7 - 31.0 Showers Mostly clear 8 - - - -
15/07:00am 18.6 ESE 12 20 1016.8 - 31.0 - Mostly clear 6 - - - -
15/06:51am 18.7 SE 9 21 1016.9 - 30.0 Showers Mostly clear 4 - - - -
15/06:46am 19.2 SSE 7 12 1016.5 - 29.4 Showers Mostly clear 5 - - - -
15/06:30am 19.6 ESE 8 16 1016.2 - 29.2 Showers Mostly clear 10 - - - -
15/06:00am 18.3 ESE 8 14 1016.0 F 29.0 Showers Cloudy 10 - - - -
15/05:50am 19.1 E 9 21 1016.1 - 24.4 Showers Mostly clear 5 - - - -
15/05:30am 20.3 ESE 9 17 1015.6 - 22.4 - Mostly clear 10 - - - -
15/05:00am 18.8 ESE 8 15 1015.3 - 22.4 - Mostly clear 10 - - - -
15/04:30am 18.3 S 6 9 1015.3 - 22.2 Showers Mostly clear 8 - - - -
15/04:00am 18.4 S 5 7 1015.1 - 22.0 - Mostly clear 8 - - - -
15/03:30am 18.7 SE 7 11 1015.0 - 21.8 Showers Mostly clear 8 - - - -
15/03:12am 18.9 SE 7 11 1015.1 - 20.6 Showers Mostly clear 10 - - - -

Other Formats:

Comma delimited format used in spreadsheet applications
http://www.bom.gov.au/fwo/IDQ60701/IDQ60701.94578.axf

JavaScript Object Notation format (JSON) in row-major order
http://www.bom.gov.au/fwo/IDQ60701/IDQ60701.94578.json